Alamogordo/Holloman AFB, New Mexico
Current Conditions -  °F | °C
As of 5:58 PM on Tuesday 21 Oct 2014 (Local Time) from KHMN Reporting Station
Clear Clear  
Wind Chill: 68°   Ceiling: Unl
Heat Index: 68°   Visibility: 10mi
Dew Point: 55°   Wind: 8mph
Humidity: 62%   Direction: 170°S
Pressure: 30.01"   Gusts: NA
Location:  32.85°N, 106.1°W
Report Text: KHMN 212358Z AUTO 17007KT 10SM CLR 20/13 A3001 RMK AO2 SLP115 T02010125 10220 20184 56006 $
Loading
Personal Weather Stations






























Interactive Weather Map
Tropical Storm Tracking
New forecast layout! Learn more

10-Day Weather Forecast

Advertisements
Track Severe Weather on mobile